createdAt,value
2019-05-11T00:00:42.063Z,6.00
2019-05-11T00:01:42.036Z,5.90
2019-05-11T00:02:42.043Z,6.30
2019-05-11T00:03:42.050Z,6.60
2019-05-11T00:04:42.017Z,5.80
2019-05-11T00:05:42.001Z,6.00
2019-05-11T00:06:41.990Z,5.70
2019-05-11T00:07:42.000Z,6.30
2019-05-11T00:08:41.972Z,6.10
2019-05-11T00:09:56.964Z,6.10
2019-05-11T00:10:42.945Z,6.00
2019-05-11T00:11:41.965Z,6.10
2019-05-11T00:12:41.958Z,6.20
2019-05-11T00:13:41.936Z,6.70
2019-05-11T00:14:41.907Z,6.40
2019-05-11T00:15:41.895Z,6.80
2019-05-11T00:16:41.886Z,6.00
2019-05-11T00:17:41.891Z,6.50
2019-05-11T00:18:41.893Z,6.60
2019-05-11T00:19:41.849Z,6.20
2019-05-11T00:20:41.859Z,7.00
2019-05-11T00:21:41.829Z,6.90
2019-05-11T00:22:41.817Z,6.80
2019-05-11T00:23:41.818Z,7.00
2019-05-11T00:24:41.796Z,7.50
2019-05-11T00:25:41.789Z,7.20
2019-05-11T00:26:41.776Z,7.00
2019-05-11T00:27:41.763Z,6.90
2019-05-11T00:28:41.772Z,7.30
2019-05-11T00:29:41.767Z,6.70
2019-05-11T00:30:41.732Z,7.60
2019-05-11T00:31:41.738Z,7.40
2019-05-11T00:32:41.710Z,7.50
2019-05-11T00:33:41.720Z,7.40
2019-05-11T00:34:41.694Z,7.50
2019-05-11T00:35:41.691Z,7.70
2019-05-11T00:36:41.696Z,7.50
2019-05-11T00:37:41.653Z,7.80
2019-05-11T00:38:41.710Z,7.60
2019-05-11T00:39:41.640Z,7.70
2019-05-11T00:40:41.619Z,7.60
2019-05-11T00:41:41.615Z,8.70
2019-05-11T00:42:41.603Z,8.60
2019-05-11T00:43:41.610Z,8.00
2019-05-11T00:44:41.588Z,9.10
2019-05-11T00:45:41.569Z,8.20
2019-05-11T00:46:41.565Z,8.60
2019-05-11T00:47:41.559Z,8.90
2019-05-11T00:48:41.547Z,8.70
2019-05-11T00:49:41.529Z,8.90
2019-05-11T00:50:41.527Z,9.20
2019-05-11T00:51:41.506Z,9.10
2019-05-11T00:52:41.489Z,10.70
2019-05-11T00:53:41.507Z,9.30
2019-05-11T00:54:41.495Z,9.20
2019-05-11T00:55:41.467Z,9.10
2019-05-11T00:56:41.452Z,9.40
2019-05-11T00:57:41.454Z,9.30
2019-05-11T00:58:41.442Z,10.20
2019-05-11T00:59:41.444Z,9.10
2019-05-11T01:00:41.412Z,9.10
2019-05-11T01:01:41.407Z,9.10
2019-05-11T01:02:41.390Z,9.10
2019-05-11T01:03:41.394Z,9.00
2019-05-11T01:04:41.378Z,8.80
2019-05-11T01:05:41.362Z,8.90
2019-05-11T01:06:41.351Z,9.20
2019-05-11T01:07:41.335Z,9.20
2019-05-11T01:08:41.343Z,8.80
2019-05-11T01:09:41.309Z,8.60
2019-05-11T01:10:42.653Z,9.40
2019-05-11T01:11:41.288Z,8.70
2019-05-11T01:12:41.300Z,8.50
2019-05-11T01:13:41.444Z,8.50
2019-05-11T01:14:41.258Z,8.80
2019-05-11T01:15:41.257Z,8.20
2019-05-11T01:16:41.245Z,8.20
2019-05-11T01:17:41.234Z,7.80
2019-05-11T01:18:41.230Z,8.70
2019-05-11T01:19:41.208Z,8.40
2019-05-11T01:20:41.205Z,8.30
2019-05-11T01:21:41.189Z,7.90
2019-05-11T01:22:41.203Z,8.00
2019-05-11T01:23:41.193Z,8.10
2019-05-11T01:24:41.148Z,8.50
2019-05-11T01:25:41.147Z,8.00
2019-05-11T01:26:41.135Z,8.30
2019-05-11T01:27:41.120Z,8.50
2019-05-11T01:28:41.114Z,7.90
2019-05-11T01:29:41.110Z,8.20
2019-05-11T01:30:41.097Z,7.90
2019-05-11T01:31:41.082Z,7.90
2019-05-11T01:32:41.065Z,7.50
2019-05-11T01:33:41.068Z,8.00
2019-05-11T01:34:41.064Z,7.90
2019-05-11T01:35:41.046Z,8.30
2019-05-11T01:36:41.025Z,7.50
2019-05-11T01:37:41.008Z,8.10
2019-05-11T01:38:41.009Z,7.90
2019-05-11T01:39:41.197Z,8.20
2019-05-11T01:40:40.983Z,8.20
2019-05-11T01:41:40.966Z,7.90
2019-05-11T01:42:40.961Z,8.00
2019-05-11T01:43:40.971Z,8.20
2019-05-11T01:44:40.954Z,8.30
2019-05-11T01:45:40.960Z,9.00
2019-05-11T01:46:40.927Z,8.60
2019-05-11T01:47:40.941Z,8.50
2019-05-11T01:48:40.895Z,9.10
2019-05-11T01:49:40.921Z,9.00
2019-05-11T01:50:40.884Z,10.10
2019-05-11T01:51:40.859Z,9.60
2019-05-11T01:52:40.866Z,10.10
2019-05-11T01:53:40.851Z,9.70
2019-05-11T01:54:40.852Z,9.60
2019-05-11T01:55:40.818Z,10.20
2019-05-11T01:56:40.810Z,9.30
2019-05-11T01:57:40.799Z,9.30
2019-05-11T01:58:40.809Z,9.80
2019-05-11T01:59:40.802Z,11.40
2019-05-11T02:00:40.784Z,11.60
2019-05-11T02:01:40.758Z,11.50
2019-05-11T02:02:40.740Z,11.00
2019-05-11T02:03:40.736Z,11.10
2019-05-11T02:04:40.741Z,11.60
2019-05-11T02:05:40.719Z,11.00
2019-05-11T02:06:40.702Z,11.10
2019-05-11T02:07:40.695Z,11.60
2019-05-11T02:08:40.719Z,11.40
2019-05-11T02:09:40.689Z,10.50
2019-05-11T02:10:40.654Z,11.80
2019-05-11T02:11:40.650Z,12.10
2019-05-11T02:12:40.640Z,12.00
2019-05-11T02:13:40.638Z,11.90
2019-05-11T02:14:40.619Z,12.30
2019-05-11T02:15:40.617Z,12.20
2019-05-11T02:16:40.593Z,13.80
2019-05-11T02:17:40.593Z,12.70
2019-05-11T02:18:40.581Z,12.70
2019-05-11T02:19:40.566Z,13.00
2019-05-11T02:20:40.573Z,13.30
2019-05-11T02:21:40.561Z,12.70
2019-05-11T02:22:40.527Z,14.80
2019-05-11T02:23:40.518Z,15.40
2019-05-11T02:24:40.512Z,13.00
2019-05-11T02:25:40.530Z,13.30
2019-05-11T02:26:40.490Z,12.60
2019-05-11T02:27:40.474Z,13.40
2019-05-11T02:28:40.465Z,14.30
2019-05-11T02:29:41.641Z,13.50
2019-05-11T02:30:40.474Z,13.40
2019-05-11T02:31:40.456Z,13.00
2019-05-11T02:32:40.424Z,13.10
2019-05-11T02:33:40.417Z,14.40
2019-05-11T02:34:40.402Z,13.00
2019-05-11T02:35:40.589Z,13.30
2019-05-11T02:36:40.387Z,13.70
2019-05-11T02:37:40.369Z,13.70
2019-05-11T02:38:40.371Z,13.30
2019-05-11T02:39:40.353Z,13.80
2019-05-11T02:40:40.355Z,14.30
2019-05-11T02:41:40.340Z,13.00
2019-05-11T02:42:40.328Z,14.40
2019-05-11T02:43:40.316Z,14.20
2019-05-11T02:44:40.324Z,13.00
2019-05-11T02:45:40.301Z,13.00
2019-05-11T02:46:40.270Z,12.80
2019-05-11T02:47:40.271Z,13.20
2019-05-11T02:48:40.252Z,12.40
2019-05-11T02:49:40.247Z,12.40
2019-05-11T02:50:40.250Z,12.70
2019-05-11T02:51:40.225Z,12.30
2019-05-11T02:52:40.213Z,13.30
2019-05-11T02:53:40.204Z,13.80
2019-05-11T02:54:40.216Z,13.40
2019-05-11T02:55:40.192Z,13.50
2019-05-11T02:56:40.166Z,13.40
2019-05-11T02:57:40.158Z,13.20
2019-05-11T02:58:40.150Z,14.70
2019-05-11T02:59:40.143Z,13.90
2019-05-11T03:00:40.294Z,13.40
2019-05-11T03:01:40.133Z,12.70
2019-05-11T03:02:40.112Z,13.50
2019-05-11T03:03:40.094Z,13.10
2019-05-11T03:04:40.122Z,14.00
2019-05-11T03:05:40.100Z,14.00
2019-05-11T03:06:40.056Z,13.50
2019-05-11T03:07:40.060Z,13.00
2019-05-11T03:08:40.045Z,12.40
2019-05-11T03:09:40.026Z,12.50
2019-05-11T03:10:40.207Z,12.50
2019-05-11T03:11:55.131Z,12.50
2019-05-11T03:12:41.015Z,12.10
2019-05-11T03:13:39.983Z,12.80
2019-05-11T03:14:39.975Z,13.50
2019-05-11T03:15:39.990Z,11.70
2019-05-11T03:16:39.973Z,12.90
2019-05-11T03:17:39.962Z,12.10
2019-05-11T03:18:39.935Z,12.30
2019-05-11T03:19:39.926Z,11.70
2019-05-11T03:20:39.994Z,11.50
2019-05-11T03:21:39.899Z,12.10
2019-05-11T03:22:39.890Z,11.50
2019-05-11T03:23:39.883Z,10.20
2019-05-11T03:24:39.873Z,10.90
2019-05-11T03:25:39.863Z,11.50
2019-05-11T03:26:39.918Z,10.10
2019-05-11T03:27:39.838Z,10.90
2019-05-11T03:28:39.842Z,10.60
2019-05-11T03:29:39.819Z,9.90
2019-05-11T03:30:39.848Z,10.60
2019-05-11T03:31:39.818Z,10.20
2019-05-11T03:32:39.787Z,10.50
2019-05-11T03:33:39.786Z,9.90
2019-05-11T03:34:39.769Z,9.90
2019-05-11T03:35:39.765Z,9.60
2019-05-11T03:36:39.768Z,9.30
2019-05-11T03:37:39.723Z,9.80
2019-05-11T03:38:39.711Z,9.30
2019-05-11T03:39:39.713Z,9.30
2019-05-11T03:40:39.711Z,9.40
2019-05-11T03:41:39.706Z,9.30
2019-05-11T03:42:39.674Z,9.60
2019-05-11T03:43:39.666Z,9.50
2019-05-11T03:44:39.650Z,9.40
2019-05-11T03:45:39.652Z,9.60
2019-05-11T03:46:39.639Z,10.10
2019-05-11T03:47:39.643Z,10.20
2019-05-11T03:48:39.610Z,10.10
2019-05-11T03:49:39.599Z,10.80
2019-05-11T03:50:39.587Z,10.00
2019-05-11T03:51:39.591Z,11.00
2019-05-11T03:52:39.578Z,10.90
2019-05-11T03:53:39.575Z,10.60
2019-05-11T03:54:39.544Z,10.90
2019-05-11T03:55:39.536Z,11.50
2019-05-11T03:56:39.546Z,10.70
2019-05-11T03:57:39.514Z,11.40
2019-05-11T03:58:39.495Z,11.70
2019-05-11T03:59:39.492Z,12.00
2019-05-11T04:00:39.517Z,12.40
2019-05-11T04:01:39.486Z,11.30
2019-05-11T04:02:39.466Z,11.40
2019-05-11T04:03:39.469Z,10.70
2019-05-11T04:04:39.439Z,10.50
2019-05-11T04:05:39.495Z,10.40
2019-05-11T04:06:39.434Z,11.00
2019-05-11T04:07:39.404Z,10.50
2019-05-11T04:08:39.392Z,10.60
2019-05-11T04:09:39.402Z,10.50
2019-05-11T04:10:39.409Z,10.20
2019-05-11T04:11:39.369Z,10.80
2019-05-11T04:12:39.353Z,9.80
2019-05-11T04:13:39.338Z,10.90
2019-05-11T04:14:39.332Z,10.60
2019-05-11T04:15:39.327Z,10.70
2019-05-11T04:16:39.332Z,10.00
2019-05-11T04:17:39.289Z,10.10
2019-05-11T04:18:39.290Z,9.90
2019-05-11T04:19:39.274Z,9.80
2019-05-11T04:20:39.262Z,10.50
2019-05-11T04:21:39.265Z,9.80
2019-05-11T04:22:39.233Z,10.40
2019-05-11T04:23:39.224Z,10.30
2019-05-11T04:24:39.214Z,10.80
2019-05-11T04:25:39.220Z,10.40
2019-05-11T04:26:39.222Z,9.60
2019-05-11T04:27:39.206Z,10.20
2019-05-11T04:28:39.173Z,9.50
2019-05-11T04:29:39.162Z,10.20
2019-05-11T04:30:39.146Z,10.20
2019-05-11T04:31:39.140Z,10.80
2019-05-11T04:32:39.149Z,10.50
2019-05-11T04:33:39.140Z,10.20
2019-05-11T04:34:39.114Z,9.90
2019-05-11T04:35:39.099Z,9.30
2019-05-11T04:36:39.114Z,8.70
2019-05-11T04:37:39.095Z,9.10
2019-05-11T04:38:39.084Z,9.70
2019-05-11T04:39:39.073Z,9.20
2019-05-11T04:40:39.044Z,9.90
2019-05-11T04:41:39.044Z,9.30
2019-05-11T04:42:54.231Z,8.90
2019-05-11T04:43:40.019Z,9.00
2019-05-11T04:44:39.002Z,9.00
2019-05-11T04:45:38.995Z,8.50
2019-05-11T04:46:38.987Z,8.90
2019-05-11T04:47:38.996Z,9.10
2019-05-11T04:48:38.962Z,9.00
2019-05-11T04:49:38.965Z,9.10
2019-05-11T04:50:38.966Z,8.40
2019-05-11T04:51:38.923Z,9.30
2019-05-11T04:52:38.939Z,9.00
2019-05-11T04:53:38.907Z,8.80
2019-05-11T04:54:38.894Z,9.10
2019-05-11T04:55:38.874Z,8.60
2019-05-11T04:56:38.881Z,8.90
2019-05-11T04:57:38.888Z,9.10
2019-05-11T04:58:38.856Z,8.90
2019-05-11T04:59:38.843Z,9.00
2019-05-11T05:00:38.835Z,8.90
2019-05-11T05:01:38.824Z,9.50
2019-05-11T05:02:38.838Z,9.00
2019-05-11T05:03:41.134Z,9.20
2019-05-11T05:04:38.783Z,9.20
2019-05-11T05:05:38.771Z,8.70
2019-05-11T05:06:39.094Z,9.00
2019-05-11T05:07:47.714Z,9.20
2019-05-11T05:08:39.734Z,8.90
2019-05-11T05:09:42.570Z,9.00
2019-05-11T05:10:39.745Z,9.00
2019-05-11T05:11:38.719Z,8.90
2019-05-11T05:12:38.712Z,9.30
2019-05-11T05:13:38.685Z,9.00
2019-05-11T05:14:38.677Z,8.50
2019-05-11T05:15:38.660Z,9.00
2019-05-11T05:16:38.653Z,9.70
2019-05-11T05:17:38.657Z,9.40
2019-05-11T05:18:38.635Z,10.20
2019-05-11T05:19:38.634Z,9.10
2019-05-11T05:20:38.610Z,9.60
2019-05-11T05:21:38.613Z,9.00
2019-05-11T05:22:38.633Z,8.80
2019-05-11T05:23:38.583Z,9.40
2019-05-11T05:24:38.577Z,9.30
2019-05-11T05:25:38.570Z,9.20
2019-05-11T05:26:38.549Z,9.80
2019-05-11T05:27:38.531Z,9.10
2019-05-11T05:28:38.556Z,8.90
2019-05-11T05:29:38.518Z,9.60
2019-05-11T05:30:38.513Z,10.00
2019-05-11T05:31:38.493Z,9.80
2019-05-11T05:32:38.492Z,10.20
2019-05-11T05:33:38.480Z,9.90
2019-05-11T05:34:38.459Z,9.40
2019-05-11T05:35:38.465Z,9.70
2019-05-11T05:36:38.451Z,9.90
2019-05-11T05:37:38.437Z,10.60
2019-05-11T05:38:38.441Z,9.80
2019-05-11T05:39:38.402Z,9.90
2019-05-11T05:40:38.388Z,10.50
2019-05-11T05:41:38.813Z,10.20
2019-05-11T05:42:38.377Z,10.40
2019-05-11T05:43:38.385Z,11.60
2019-05-11T05:44:38.355Z,10.10
2019-05-11T05:45:38.335Z,10.00
2019-05-11T05:46:38.321Z,9.70
2019-05-11T05:47:38.323Z,10.30
2019-05-11T05:48:38.334Z,10.50
2019-05-11T05:49:38.307Z,10.70
2019-05-11T05:50:38.285Z,10.40
2019-05-11T05:51:38.279Z,10.60
2019-05-11T05:52:38.270Z,10.10
2019-05-11T05:53:38.273Z,9.90
2019-05-11T05:54:38.240Z,10.50
2019-05-11T05:55:38.236Z,10.60
2019-05-11T05:56:38.225Z,10.40
2019-05-11T05:57:38.209Z,10.40
2019-05-11T05:58:38.225Z,9.80
2019-05-11T05:59:38.199Z,9.60
2019-05-11T06:00:38.185Z,10.30
2019-05-11T06:01:38.177Z,9.90
2019-05-11T06:02:38.161Z,9.70
2019-05-11T06:03:38.165Z,9.70
2019-05-11T06:04:38.147Z,10.20
2019-05-11T06:05:38.188Z,10.60
2019-05-11T06:06:38.165Z,10.20
2019-05-11T06:07:38.154Z,10.40
2019-05-11T06:08:38.102Z,10.10
2019-05-11T06:09:38.090Z,10.30
2019-05-11T06:10:38.084Z,10.20
2019-05-11T06:11:38.082Z,10.30
2019-05-11T06:12:38.041Z,9.80
2019-05-11T06:13:44.989Z,10.20
2019-05-11T06:14:39.033Z,10.20
2019-05-11T06:15:38.021Z,10.90
2019-05-11T06:16:38.014Z,11.10
2019-05-11T06:17:37.989Z,10.80
2019-05-11T06:18:38.001Z,11.20
2019-05-11T06:19:37.967Z,10.90
2019-05-11T06:20:37.955Z,10.30
2019-05-11T06:21:37.976Z,11.20
2019-05-11T06:22:37.951Z,10.60
2019-05-11T06:23:38.094Z,11.20
2019-05-11T06:24:37.925Z,11.20
2019-05-11T06:25:37.915Z,10.80
2019-05-11T06:26:37.895Z,10.40
2019-05-11T06:27:37.897Z,9.90
2019-05-11T06:28:37.906Z,11.10
2019-05-11T06:29:37.860Z,10.40
2019-05-11T06:30:37.855Z,10.50
2019-05-11T06:31:37.841Z,10.50
2019-05-11T06:32:37.828Z,10.30
2019-05-11T06:33:37.840Z,9.80
2019-05-11T06:34:37.818Z,10.40
2019-05-11T06:35:37.794Z,9.90
2019-05-11T06:36:37.792Z,10.50
2019-05-11T06:37:37.769Z,9.70
2019-05-11T06:38:37.775Z,10.10
2019-05-11T06:39:37.758Z,9.80
2019-05-11T06:40:37.750Z,10.30
2019-05-11T06:41:37.732Z,10.50
2019-05-11T06:42:37.721Z,9.90
2019-05-11T06:43:37.732Z,9.90
2019-05-11T06:44:37.717Z,10.20
2019-05-11T06:45:37.691Z,10.40
2019-05-11T06:46:37.676Z,10.40
2019-05-11T06:47:37.717Z,10.10
2019-05-11T06:48:37.659Z,9.80
2019-05-11T06:49:37.658Z,9.70
2019-05-11T06:50:37.635Z,9.40
2019-05-11T06:51:40.353Z,9.80
2019-05-11T06:52:37.627Z,9.50
2019-05-11T06:53:37.617Z,9.30
2019-05-11T06:54:37.648Z,9.10
2019-05-11T06:55:37.584Z,9.10
2019-05-11T06:56:37.578Z,9.70
2019-05-11T06:57:37.566Z,9.20
2019-05-11T06:58:37.551Z,9.10
2019-05-11T06:59:37.558Z,8.80
2019-05-11T07:00:37.537Z,9.40
2019-05-11T07:01:37.510Z,9.10
2019-05-11T07:02:37.616Z,9.50
2019-05-11T07:03:37.513Z,9.80
2019-05-11T07:04:37.624Z,10.00
2019-05-11T07:05:37.499Z,8.80
2019-05-11T07:06:37.495Z,9.10
2019-05-11T07:07:47.146Z,9.20
2019-05-11T07:08:38.457Z,9.20
2019-05-11T07:09:37.495Z,8.80
2019-05-11T07:10:37.712Z,8.40
2019-05-11T07:11:37.454Z,9.00
2019-05-11T07:12:37.406Z,8.70
2019-05-11T07:13:37.454Z,8.60
2019-05-11T07:14:37.434Z,8.40
2019-05-11T07:15:37.366Z,8.80
2019-05-11T07:16:37.368Z,8.40
2019-05-11T07:17:37.390Z,7.60
2019-05-11T07:18:37.366Z,8.80
2019-05-11T07:19:37.384Z,8.40
2019-05-11T07:20:49.498Z,8.10
2019-05-11T07:21:38.296Z,7.80
2019-05-11T07:22:37.289Z,7.80
2019-05-11T07:23:37.288Z,7.00
2019-05-11T07:24:37.305Z,7.20
2019-05-11T07:25:37.285Z,6.80
2019-05-11T07:26:37.251Z,7.30
2019-05-11T07:27:37.245Z,7.50
2019-05-11T07:28:37.248Z,7.10
2019-05-11T07:29:37.248Z,7.50
2019-05-11T07:30:37.268Z,7.90
2019-05-11T07:31:37.209Z,7.10
2019-05-11T07:32:38.152Z,6.70
2019-05-11T07:33:37.984Z,7.10
2019-05-11T07:34:38.322Z,7.00
2019-05-11T07:35:38.487Z,7.20
2019-05-11T07:36:38.778Z,7.10
2019-05-11T07:37:38.496Z,7.10
2019-05-11T07:38:38.189Z,7.20
2019-05-11T07:39:38.321Z,6.80
2019-05-11T07:40:38.518Z,7.10
2019-05-11T07:41:38.665Z,6.90
2019-05-11T07:42:37.947Z,6.50
2019-05-11T07:43:38.049Z,6.50
2019-05-11T07:44:41.077Z,6.30
2019-05-11T07:45:38.665Z,6.60
2019-05-11T07:46:37.715Z,6.40
2019-05-11T07:47:38.003Z,6.50
2019-05-11T07:48:38.748Z,6.70
2019-05-11T07:49:38.267Z,6.60
2019-05-11T07:50:38.766Z,6.50
2019-05-11T07:51:38.925Z,6.10
2019-05-11T07:52:37.820Z,6.30
2019-05-11T07:53:38.126Z,6.50
2019-05-11T07:54:38.542Z,6.00
2019-05-11T07:55:38.553Z,6.20
2019-05-11T07:56:38.989Z,5.90
2019-05-11T07:57:39.000Z,5.70
2019-05-11T07:58:38.714Z,5.60
2019-05-11T07:59:38.208Z,5.80
2019-05-11T08:00:39.763Z,5.50
2019-05-11T08:01:38.626Z,6.20
2019-05-11T08:02:38.673Z,5.90
2019-05-11T08:03:38.932Z,5.50
2019-05-11T08:04:37.862Z,5.60
2019-05-11T08:05:38.577Z,5.60
2019-05-11T08:06:38.914Z,5.60
2019-05-11T08:07:37.839Z,5.60
2019-05-11T08:08:38.466Z,5.20
2019-05-11T08:09:38.057Z,5.60
2019-05-11T08:10:39.029Z,5.90
2019-05-11T08:11:38.839Z,5.60
2019-05-11T08:12:39.231Z,5.80
2019-05-11T08:13:38.826Z,5.40
2019-05-11T08:14:55.378Z,6.10
2019-05-11T08:15:38.355Z,5.90
2019-05-11T08:16:39.002Z,5.50
2019-05-11T08:17:38.099Z,5.90
2019-05-11T08:18:38.679Z,5.60
2019-05-11T08:19:38.422Z,5.90
2019-05-11T08:20:38.574Z,5.70
2019-05-11T08:21:38.682Z,5.10
2019-05-11T08:22:37.761Z,4.40
2019-05-11T08:23:37.707Z,4.80
2019-05-11T08:24:37.754Z,5.00
2019-05-11T08:25:37.928Z,4.70
2019-05-11T08:26:38.621Z,5.00
2019-05-11T08:27:37.882Z,5.00
2019-05-11T08:28:38.079Z,5.10
2019-05-11T08:29:38.379Z,5.10
2019-05-11T08:30:38.151Z,5.10
2019-05-11T08:31:38.556Z,4.70
2019-05-11T08:32:38.678Z,5.10
2019-05-11T08:33:38.696Z,4.60
2019-05-11T08:34:36.535Z,4.80
2019-05-11T08:35:38.787Z,4.60
2019-05-11T08:36:37.834Z,4.70
2019-05-11T08:37:38.554Z,5.10
2019-05-11T08:38:37.804Z,4.90
2019-05-11T08:39:37.961Z,4.70
2019-05-11T08:40:37.899Z,4.50
2019-05-11T08:41:38.406Z,4.40
2019-05-11T08:42:37.836Z,4.50
2019-05-11T08:43:38.682Z,4.30
2019-05-11T08:44:37.972Z,4.00
2019-05-11T08:45:36.415Z,4.10
2019-05-11T08:46:38.627Z,4.40
2019-05-11T08:47:37.707Z,4.00
2019-05-11T08:48:38.616Z,3.90
2019-05-11T08:49:38.102Z,4.20
2019-05-11T08:50:38.282Z,3.90
2019-05-11T08:51:38.621Z,3.90
2019-05-11T08:52:38.434Z,3.70
2019-05-11T08:53:38.565Z,3.80
2019-05-11T08:54:38.233Z,3.60
2019-05-11T08:55:38.214Z,3.90
2019-05-11T08:56:38.267Z,3.80
2019-05-11T08:57:38.524Z,3.90
2019-05-11T08:58:38.046Z,4.00
2019-05-11T08:59:38.073Z,3.50
2019-05-11T09:00:38.757Z,3.30
2019-05-11T09:01:36.257Z,3.50
2019-05-11T09:02:38.266Z,3.50
2019-05-11T09:03:38.565Z,3.60
2019-05-11T09:04:39.378Z,3.50
2019-05-11T09:05:38.468Z,3.40
2019-05-11T09:06:37.637Z,3.80
2019-05-11T09:07:38.315Z,3.70
2019-05-11T09:08:38.641Z,3.30
2019-05-11T09:09:38.044Z,3.30
2019-05-11T09:10:39.130Z,3.30
2019-05-11T09:11:36.120Z,3.60
2019-05-11T09:12:38.191Z,3.40
2019-05-11T09:13:36.102Z,3.30
2019-05-11T09:14:38.546Z,3.50
2019-05-11T09:15:39.807Z,3.30
2019-05-11T09:16:38.116Z,3.10
2019-05-11T09:17:38.157Z,3.00
2019-05-11T09:18:38.413Z,3.10
2019-05-11T09:19:36.036Z,3.20
2019-05-11T09:20:37.851Z,3.00
2019-05-11T09:21:38.195Z,3.20
2019-05-11T09:22:38.126Z,3.00
2019-05-11T09:23:38.272Z,2.90
2019-05-11T09:24:38.450Z,3.20
2019-05-11T09:25:38.315Z,2.80
2019-05-11T09:26:35.960Z,2.80
2019-05-11T09:27:37.607Z,3.00
2019-05-11T09:28:38.255Z,3.10
2019-05-11T09:29:35.921Z,3.20
2019-05-11T09:30:37.791Z,3.00
2019-05-11T09:31:38.006Z,3.00
2019-05-11T09:32:38.282Z,2.80
2019-05-11T09:33:35.880Z,2.90
2019-05-11T09:34:37.744Z,2.90
2019-05-11T09:35:47.561Z,2.70
2019-05-11T09:36:38.916Z,2.70
2019-05-11T09:37:38.000Z,2.60
2019-05-11T09:38:38.178Z,2.80
2019-05-11T09:39:37.896Z,2.40
2019-05-11T09:40:35.809Z,2.50
2019-05-11T09:41:38.091Z,2.70
2019-05-11T09:42:35.800Z,2.70
2019-05-11T09:43:37.647Z,2.80
2019-05-11T09:44:37.825Z,2.40
2019-05-11T09:45:45.778Z,2.50
2019-05-11T09:46:38.455Z,2.50
2019-05-11T09:47:35.722Z,2.90
2019-05-11T09:48:37.855Z,2.80
2019-05-11T09:49:46.405Z,2.90
2019-05-11T09:50:38.736Z,2.90
2019-05-11T09:51:37.823Z,3.00
2019-05-11T09:52:38.248Z,3.10
2019-05-11T09:53:35.672Z,2.90
2019-05-11T09:54:37.675Z,3.00
2019-05-11T09:55:35.646Z,2.80
2019-05-11T09:56:37.964Z,2.90
2019-05-11T09:57:37.997Z,3.10
2019-05-11T09:58:35.714Z,3.00
2019-05-11T09:59:35.600Z,3.40
2019-05-11T10:00:35.614Z,3.00
2019-05-11T10:01:37.692Z,3.00
2019-05-11T10:02:38.302Z,3.10
2019-05-11T10:03:35.573Z,2.90
2019-05-11T10:04:37.829Z,2.90
2019-05-11T10:05:35.535Z,2.90
2019-05-11T10:06:35.517Z,3.10
2019-05-11T10:07:37.817Z,3.10
2019-05-11T10:08:38.023Z,3.40
2019-05-11T10:09:35.508Z,3.20
2019-05-11T10:10:35.529Z,3.50
2019-05-11T10:11:35.463Z,3.50
2019-05-11T10:12:37.819Z,3.50
2019-05-11T10:13:35.481Z,3.70
2019-05-11T10:14:35.432Z,3.60
2019-05-11T10:15:35.426Z,3.60
2019-05-11T10:16:35.420Z,4.00
2019-05-11T10:17:35.397Z,3.90
2019-05-11T10:18:35.410Z,3.90
2019-05-11T10:19:35.380Z,4.00
2019-05-11T10:20:35.378Z,4.30
2019-05-11T10:21:35.361Z,4.60
2019-05-11T10:22:35.348Z,4.20
2019-05-11T10:23:35.350Z,4.30
2019-05-11T10:24:35.326Z,3.90
2019-05-11T10:25:35.310Z,4.20
2019-05-11T10:26:35.308Z,4.50
2019-05-11T10:27:35.289Z,4.50
2019-05-11T10:28:35.426Z,4.50
2019-05-11T10:29:35.269Z,4.60
2019-05-11T10:30:35.273Z,4.90
2019-05-11T10:31:35.245Z,4.80
2019-05-11T10:32:37.720Z,4.50
2019-05-11T10:33:35.249Z,4.80
2019-05-11T10:34:35.214Z,4.70
2019-05-11T10:35:37.675Z,4.70
2019-05-11T10:36:35.196Z,4.20
2019-05-11T10:37:35.176Z,4.70
2019-05-11T10:38:35.192Z,4.60
2019-05-11T10:39:35.167Z,4.90
2019-05-11T10:40:35.144Z,4.50
2019-05-11T10:41:35.141Z,4.80
2019-05-11T10:42:35.129Z,4.90
2019-05-11T10:43:35.139Z,5.00
2019-05-11T10:44:35.120Z,4.70
2019-05-11T10:45:35.099Z,4.80
2019-05-11T10:46:35.083Z,4.70
2019-05-11T10:47:35.075Z,4.50
2019-05-11T10:48:35.065Z,4.60
2019-05-11T10:49:35.066Z,4.40
2019-05-11T10:50:35.037Z,4.70
2019-05-11T10:51:35.029Z,4.90
2019-05-11T10:52:35.013Z,4.80
2019-05-11T10:53:35.031Z,4.70
2019-05-11T10:54:35.020Z,5.00
2019-05-11T10:55:34.987Z,4.80
2019-05-11T10:56:34.979Z,4.50
2019-05-11T10:57:34.966Z,4.50
2019-05-11T10:58:34.953Z,4.40
2019-05-11T10:59:34.964Z,4.70
2019-05-11T11:00:34.936Z,4.70
2019-05-11T11:01:34.916Z,5.00
2019-05-11T11:02:34.917Z,4.80
2019-05-11T11:03:34.897Z,4.60
2019-05-11T11:04:34.900Z,5.10
2019-05-11T11:05:34.880Z,4.80
2019-05-11T11:06:34.882Z,5.20
2019-05-11T11:07:34.858Z,5.30
2019-05-11T11:08:34.858Z,5.80
2019-05-11T11:09:34.860Z,5.30
2019-05-11T11:10:34.822Z,5.90
2019-05-11T11:11:34.810Z,6.00
2019-05-11T11:12:34.803Z,6.10
2019-05-11T11:13:34.793Z,5.90
2019-05-11T11:14:34.796Z,6.20
2019-05-11T11:15:34.769Z,5.80
2019-05-11T11:16:38.788Z,5.80
2019-05-11T11:17:37.971Z,6.30
2019-05-11T11:18:34.739Z,6.20
2019-05-11T11:19:34.751Z,6.20
2019-05-11T11:20:34.719Z,5.90
2019-05-11T11:21:34.700Z,6.50
2019-05-11T11:22:40.152Z,6.50
2019-05-11T11:23:35.680Z,6.70
2019-05-11T11:24:34.667Z,7.40
2019-05-11T11:25:34.682Z,7.10
2019-05-11T11:26:34.650Z,7.30
2019-05-11T11:27:34.641Z,7.70
2019-05-11T11:28:34.638Z,7.90
2019-05-11T11:29:34.636Z,8.00
2019-05-11T11:30:34.626Z,8.70
2019-05-11T11:31:34.597Z,8.20
2019-05-11T11:32:34.588Z,8.40
2019-05-11T11:33:34.580Z,8.90
2019-05-11T11:34:34.564Z,8.80
2019-05-11T11:35:34.570Z,9.10
2019-05-11T11:36:34.540Z,9.40
2019-05-11T11:37:34.541Z,9.10
2019-05-11T11:38:34.523Z,9.70
2019-05-11T11:39:34.526Z,9.50
2019-05-11T11:40:34.519Z,10.10
2019-05-11T11:41:34.491Z,10.50
2019-05-11T11:42:34.477Z,10.30
2019-05-11T11:43:34.465Z,10.30
2019-05-11T11:44:34.452Z,11.10
2019-05-11T11:45:34.479Z,11.40
2019-05-11T11:46:48.523Z,11.20
2019-05-11T11:47:35.453Z,11.60
2019-05-11T11:48:34.412Z,11.20
2019-05-11T11:49:34.405Z,11.50
2019-05-11T11:50:34.406Z,12.20
2019-05-11T11:51:34.390Z,12.30
2019-05-11T11:52:34.402Z,11.30
2019-05-11T11:53:34.355Z,11.50
2019-05-11T11:54:34.355Z,11.50
2019-05-11T11:55:34.351Z,11.80
2019-05-11T11:56:34.325Z,11.00
2019-05-11T11:57:34.318Z,11.40
2019-05-11T11:58:34.307Z,11.90
2019-05-11T11:59:34.298Z,12.40
2019-05-11T12:00:34.314Z,12.40
2019-05-11T12:01:34.267Z,13.50
2019-05-11T12:02:34.282Z,13.80
2019-05-11T12:03:34.263Z,13.60
2019-05-11T12:04:34.250Z,13.60
2019-05-11T12:05:34.229Z,13.50
2019-05-11T12:06:34.233Z,13.80
2019-05-11T12:07:34.206Z,14.30
2019-05-11T12:08:34.193Z,15.20
2019-05-11T12:09:34.191Z,15.40
2019-05-11T12:10:34.201Z,15.50
2019-05-11T12:11:34.183Z,16.50
2019-05-11T12:12:34.234Z,16.20
2019-05-11T12:13:34.217Z,16.50
2019-05-11T12:14:34.216Z,16.60
2019-05-11T12:15:34.148Z,16.90
2019-05-11T12:16:34.161Z,17.20
2019-05-11T12:17:34.133Z,17.90
2019-05-11T12:18:34.090Z,18.60
2019-05-11T12:19:34.076Z,19.00
2019-05-11T12:20:34.062Z,19.20
2019-05-11T12:21:34.076Z,18.80
2019-05-11T12:22:34.048Z,20.70
2019-05-11T12:23:34.048Z,20.60
2019-05-11T12:24:34.032Z,20.30
2019-05-11T12:25:37.301Z,21.20
2019-05-11T12:26:35.024Z,21.20
2019-05-11T12:27:33.990Z,20.70
2019-05-11T12:28:33.980Z,20.80
2019-05-11T12:29:33.971Z,21.80
2019-05-11T12:30:33.960Z,22.70
2019-05-11T12:31:33.966Z,22.50
2019-05-11T12:32:33.940Z,23.10
2019-05-11T12:33:33.922Z,23.30
2019-05-11T12:34:33.923Z,23.00
2019-05-11T12:35:33.904Z,24.00
2019-05-11T12:36:33.914Z,22.60
2019-05-11T12:37:33.878Z,23.30
2019-05-11T12:38:33.893Z,24.10
2019-05-11T12:39:33.860Z,23.80
2019-05-11T12:40:33.846Z,24.00
2019-05-11T12:41:33.857Z,22.20
2019-05-11T12:42:33.831Z,23.20
2019-05-11T12:43:33.823Z,22.80
2019-05-11T12:44:33.814Z,22.00
2019-05-11T12:45:33.799Z,21.70
2019-05-11T12:46:36.650Z,23.10
2019-05-11T12:47:33.772Z,21.70
2019-05-11T12:48:33.777Z,22.10
2019-05-11T12:49:33.756Z,22.00
2019-05-11T12:50:33.747Z,22.60
2019-05-11T12:51:33.745Z,22.60
2019-05-11T12:52:33.716Z,21.60
2019-05-11T12:53:33.712Z,20.70
2019-05-11T12:54:34.146Z,20.70
2019-05-11T12:55:33.689Z,19.40
2019-05-11T12:56:33.699Z,19.20
2019-05-11T12:57:33.668Z,18.20
2019-05-11T12:58:33.654Z,16.90
2019-05-11T12:59:33.648Z,17.00
2019-05-11T13:00:33.628Z,17.40
2019-05-11T13:01:33.660Z,17.40
2019-05-11T13:02:33.614Z,17.10
2019-05-11T13:03:33.607Z,16.80
2019-05-11T13:04:33.592Z,16.50
2019-05-11T13:05:33.572Z,17.30
2019-05-11T13:06:33.590Z,16.50
2019-05-11T13:07:33.565Z,16.80
2019-05-11T13:08:33.553Z,16.30